Time;durP1;ratioP1;P1;durP2;ratioP2;P2;SDS_P1;SDS_P2;PMS_P1;PMS_P2;Temp;Humidity;BMP_temperature;BMP_pressure;BME280_temperature;BME280_humidity;BME280_pressure;Samples;Min_cycle;Max_cycle;Signal;HPM_P1;HPM_P2
2022/03/19 00:00:09;;;;;;;27.7;17.95;;;;;;;4.36;53.33789;97137.77;;;;
2022/03/19 00:01:13;;;;;;;27.7;17.95;;;;;;;4.36;53.33789;97137.77;;;;
2022/03/19 00:02:13;;;;;;;25.2;17.8;;;;;;;4.26;53.30469;97154.82;;;;
2022/03/19 00:03:15;;;;;;;25.2;17.8;;;;;;;4.26;53.30469;97154.82;;;;
2022/03/19 00:04:15;;;;;;;25.2;17.8;;;;;;;4.26;53.30469;97154.82;;;;
2022/03/19 00:05:16;;;;;;;25.2;17.8;;;;;;;4.26;53.30469;97154.82;;;;
2022/03/19 00:06:16;;;;;;;25.2;17.8;;;;;;;4.26;53.30469;97154.82;;;;
2022/03/19 00:07:17;;;;;;;25.2;17.8;;;;;;;4.26;53.30469;97154.82;;;;
2022/03/19 00:08:17;;;;;;;25.2;17.8;;;;;;;4.26;53.30469;97154.82;;;;
2022/03/19 00:09:18;;;;;;;25.2;17.8;;;;;;;4.26;53.30469;97154.82;;;;
2022/03/19 00:10:21;;;;;;;25.2;17.8;;;;;;;4.26;53.30469;97154.82;;;;
2022/03/19 00:11:23;;;;;;;25.2;17.8;;;;;;;4.26;53.30469;97154.82;;;;
2022/03/19 00:12:23;;;;;;;25.2;17.8;;;;;;;4.26;53.30469;97154.82;;;;
2022/03/19 00:13:24;;;;;;;27.05;18.55;;;;;;;4.13;53.5;97153.91;;;;
2022/03/19 00:14:24;;;;;;;27.05;18.55;;;;;;;4.13;53.5;97153.91;;;;
2022/03/19 00:15:25;;;;;;;27.05;18.55;;;;;;;4.13;53.5;97153.91;;;;
2022/03/19 00:16:26;;;;;;;27.05;18.55;;;;;;;4.13;53.5;97153.91;;;;
2022/03/19 00:17:26;;;;;;;27.05;18.55;;;;;;;4.13;53.5;97153.91;;;;
2022/03/19 00:18:27;;;;;;;27.05;18.55;;;;;;;4.13;53.5;97153.91;;;;
2022/03/19 00:19:29;;;;;;;27.05;18.55;;;;;;;4.13;53.5;97153.91;;;;
2022/03/19 00:20:30;;;;;;;27.05;18.55;;;;;;;4.13;53.5;97153.91;;;;
2022/03/19 00:21:30;;;;;;;27.05;18.55;;;;;;;4.13;53.5;97153.91;;;;
2022/03/19 00:22:31;;;;;;;27.05;18.55;;;;;;;4.13;53.5;97153.91;;;;
2022/03/19 00:23:32;;;;;;;27.05;18.55;;;;;;;4.13;53.5;97153.91;;;;
2022/03/19 00:24:32;;;;;;;28.2;19.15;;;;;;;4.04;54.05176;97163.68;;;;
2022/03/19 00:25:35;;;;;;;28.2;19.15;;;;;;;4.04;54.05176;97163.68;;;;
2022/03/19 00:26:37;;;;;;;28.2;19.15;;;;;;;4.04;54.05176;97163.68;;;;
2022/03/19 00:27:37;;;;;;;28.2;19.15;;;;;;;4.04;54.05176;97163.68;;;;
2022/03/19 00:28:40;;;;;;;28.2;19.15;;;;;;;4.04;54.05176;97163.68;;;;
2022/03/19 00:29:41;;;;;;;28.2;19.15;;;;;;;4.04;54.05176;97163.68;;;;
2022/03/19 00:30:41;;;;;;;28.2;19.15;;;;;;;4.04;54.05176;97163.68;;;;
2022/03/19 00:31:42;;;;;;;28.2;19.15;;;;;;;4.04;54.05176;97163.68;;;;
2022/03/19 00:32:42;;;;;;;28.2;19.15;;;;;;;4.04;54.05176;97163.68;;;;
2022/03/19 00:33:43;;;;;;;28.2;19.15;;;;;;;4.04;54.05176;97163.68;;;;
2022/03/19 00:34:43;;;;;;;31.55;20.4;;;;;;;3.97;54.30566;97157.31;;;;
2022/03/19 00:35:44;;;;;;;31.55;20.4;;;;;;;3.97;54.30566;97157.31;;;;
2022/03/19 00:36:44;;;;;;;31.55;20.4;;;;;;;3.97;54.30566;97157.31;;;;
2022/03/19 00:37:46;;;;;;;31.55;20.4;;;;;;;3.97;54.30566;97157.31;;;;
2022/03/19 00:38:48;;;;;;;31.55;20.4;;;;;;;3.97;54.30566;97157.31;;;;
2022/03/19 00:39:49;;;;;;;31.55;20.4;;;;;;;3.97;54.30566;97157.31;;;;
2022/03/19 00:40:51;;;;;;;31.55;20.4;;;;;;;3.97;54.30566;97157.31;;;;
2022/03/19 00:41:52;;;;;;;31.55;20.4;;;;;;;3.97;54.30566;97157.31;;;;
2022/03/19 00:42:53;;;;;;;31.55;20.4;;;;;;;3.97;54.30566;97157.31;;;;
2022/03/19 00:43:53;;;;;;;31.55;20.4;;;;;;;3.97;54.30566;97157.31;;;;
2022/03/19 00:44:54;;;;;;;31.55;20.4;;;;;;;3.97;54.30566;97157.31;;;;
2022/03/19 00:45:54;;;;;;;27;18.75;;;;;;;3.89;54.56055;97161.64;;;;
2022/03/19 00:46:55;;;;;;;27;18.75;;;;;;;3.89;54.56055;97161.64;;;;
2022/03/19 00:47:55;;;;;;;27;18.75;;;;;;;3.89;54.56055;97161.64;;;;
2022/03/19 00:48:56;;;;;;;27;18.75;;;;;;;3.89;54.56055;97161.64;;;;
2022/03/19 00:49:57;;;;;;;27;18.75;;;;;;;3.89;54.56055;97161.64;;;;
2022/03/19 00:50:57;;;;;;;27;18.75;;;;;;;3.89;54.56055;97161.64;;;;
2022/03/19 00:51:58;;;;;;;27;18.75;;;;;;;3.89;54.56055;97161.64;;;;
2022/03/19 00:52:58;;;;;;;27;18.75;;;;;;;3.89;54.56055;97161.64;;;;
2022/03/19 00:53:59;;;;;;;27;18.75;;;;;;;3.89;54.56055;97161.64;;;;
2022/03/19 00:54:59;;;;;;;27;18.75;;;;;;;3.89;54.56055;97161.64;;;;
2022/03/19 00:56:00;;;;;;;29.5;19;;;;;;;3.64;54.39258;97143.14;;;;
2022/03/19 00:57:01;;;;;;;29.5;19;;;;;;;3.64;54.39258;97143.14;;;;
2022/03/19 00:58:01;;;;;;;29.5;19;;;;;;;3.64;54.39258;97143.14;;;;
2022/03/19 00:59:02;;;;;;;29.5;19;;;;;;;3.64;54.39258;97143.14;;;;
2022/03/19 01:00:04;;;;;;;29.5;19;;;;;;;3.64;54.39258;97143.14;;;;
2022/03/19 01:01:06;;;;;;;29.5;19;;;;;;;3.64;54.39258;97143.14;;;;
2022/03/19 01:02:07;;;;;;;29.5;19;;;;;;;3.64;54.39258;97143.14;;;;
2022/03/19 01:03:07;;;;;;;29.5;19;;;;;;;3.64;54.39258;97143.14;;;;
2022/03/19 01:04:08;;;;;;;29.5;19;;;;;;;3.64;54.39258;97143.14;;;;
2022/03/19 01:05:08;;;;;;;29.5;19;;;;;;;3.64;54.39258;97143.14;;;;
2022/03/19 01:06:11;;;;;;;29.5;19;;;;;;;3.64;54.39258;97143.14;;;;
2022/03/19 01:07:11;;;;;;;29.95;19.95;;;;;;;3.54;54.78125;97137.5;;;;
2022/03/19 01:08:12;;;;;;;29.95;19.95;;;;;;;3.54;54.78125;97137.5;;;;
2022/03/19 01:09:12;;;;;;;29.95;19.95;;;;;;;3.54;54.78125;97137.5;;;;
2022/03/19 01:10:12;;;;;;;29.95;19.95;;;;;;;3.54;54.78125;97137.5;;;;
2022/03/19 01:11:15;;;;;;;29.95;19.95;;;;;;;3.54;54.78125;97137.5;;;;
2022/03/19 01:12:16;;;;;;;29.95;19.95;;;;;;;3.54;54.78125;97137.5;;;;
2022/03/19 01:13:16;;;;;;;29.95;19.95;;;;;;;3.54;54.78125;97137.5;;;;
2022/03/19 01:14:17;;;;;;;29.95;19.95;;;;;;;3.54;54.78125;97137.5;;;;
2022/03/19 01:15:17;;;;;;;29.95;19.95;;;;;;;3.54;54.78125;97137.5;;;;
2022/03/19 01:16:19;;;;;;;29.95;19.95;;;;;;;3.54;54.78125;97137.5;;;;
2022/03/19 01:17:19;;;;;;;30.75;20.15;;;;;;;3.5;54.9248;97132.11;;;;
2022/03/19 01:18:20;;;;;;;30.75;20.15;;;;;;;3.5;54.9248;97132.11;;;;
2022/03/19 01:19:52;;;;;;;30.75;20.15;;;;;;;3.5;54.9248;97132.11;;;;
2022/03/19 01:20:53;;;;;;;30.75;20.15;;;;;;;3.5;54.9248;97132.11;;;;
2022/03/19 01:21:53;;;;;;;30.75;20.15;;;;;;;3.5;54.9248;97132.11;;;;
2022/03/19 01:22:55;;;;;;;30.75;20.15;;;;;;;3.5;54.9248;97132.11;;;;
2022/03/19 01:23:56;;;;;;;30.75;20.15;;;;;;;3.5;54.9248;97132.11;;;;
2022/03/19 01:24:57;;;;;;;30.75;20.15;;;;;;;3.5;54.9248;97132.11;;;;
2022/03/19 01:25:57;;;;;;;30.75;20.15;;;;;;;3.5;54.9248;97132.11;;;;
2022/03/19 01:26:58;;;;;;;30.75;20.15;;;;;;;3.5;54.9248;97132.11;;;;
2022/03/19 01:27:58;;;;;;;34.5;21.7;;;;;;;3.44;55.77441;97126.86;;;;
2022/03/19 01:28:59;;;;;;;34.5;21.7;;;;;;;3.44;55.77441;97126.86;;;;
2022/03/19 01:29:59;;;;;;;34.5;21.7;;;;;;;3.44;55.77441;97126.86;;;;
2022/03/19 01:31:00;;;;;;;34.5;21.7;;;;;;;3.44;55.77441;97126.86;;;;
2022/03/19 01:32:01;;;;;;;34.5;21.7;;;;;;;3.44;55.77441;97126.86;;;;
2022/03/19 01:33:01;;;;;;;34.5;21.7;;;;;;;3.44;55.77441;97126.86;;;;
2022/03/19 01:34:02;;;;;;;34.5;21.7;;;;;;;3.44;55.77441;97126.86;;;;
2022/03/19 01:35:02;;;;;;;34.5;21.7;;;;;;;3.44;55.77441;97126.86;;;;
2022/03/19 01:36:04;;;;;;;34.5;21.7;;;;;;;3.44;55.77441;97126.86;;;;
2022/03/19 01:37:05;;;;;;;34.5;21.7;;;;;;;3.44;55.77441;97126.86;;;;
2022/03/19 01:38:05;;;;;;;34.5;21.7;;;;;;;3.44;55.77441;97126.86;;;;
2022/03/19 01:39:06;;;;;;;34;22.2;;;;;;;3.34;55.72949;97100.28;;;;
2022/03/19 01:40:06;;;;;;;34;22.2;;;;;;;3.34;55.72949;97100.28;;;;
2022/03/19 01:41:09;;;;;;;34;22.2;;;;;;;3.34;55.72949;97100.28;;;;
2022/03/19 01:42:10;;;;;;;34;22.2;;;;;;;3.34;55.72949;97100.28;;;;
2022/03/19 01:43:10;;;;;;;34;22.2;;;;;;;3.34;55.72949;97100.28;;;;
2022/03/19 01:44:11;;;;;;;34;22.2;;;;;;;3.34;55.72949;97100.28;;;;
2022/03/19 01:45:17;;;;;;;34;22.2;;;;;;;3.34;55.72949;97100.28;;;;
2022/03/19 01:46:20;;;;;;;34;22.2;;;;;;;3.34;55.72949;97100.28;;;;
2022/03/19 01:47:20;;;;;;;34;22.2;;;;;;;3.34;55.72949;97100.28;;;;
2022/03/19 01:48:22;;;;;;;34;22.2;;;;;;;3.34;55.72949;97100.28;;;;
2022/03/19 01:49:22;;;;;;;33.3;21.65;;;;;;;3.17;55.68652;97088.55;;;;
2022/03/19 01:50:23;;;;;;;33.3;21.65;;;;;;;3.17;55.68652;97088.55;;;;
2022/03/19 01:51:26;;;;;;;33.3;21.65;;;;;;;3.17;55.68652;97088.55;;;;
2022/03/19 01:52:28;;;;;;;33.3;21.65;;;;;;;3.17;55.68652;97088.55;;;;
2022/03/19 01:53:28;;;;;;;33.3;21.65;;;;;;;3.17;55.68652;97088.55;;;;
2022/03/19 01:54:29;;;;;;;33.3;21.65;;;;;;;3.17;55.68652;97088.55;;;;
2022/03/19 01:55:32;;;;;;;33.3;21.65;;;;;;;3.17;55.68652;97088.55;;;;
2022/03/19 01:56:33;;;;;;;33.3;21.65;;;;;;;3.17;55.68652;97088.55;;;;
2022/03/19 01:57:34;;;;;;;33.3;21.65;;;;;;;3.17;55.68652;97088.55;;;;
2022/03/19 01:58:39;;;;;;;33.3;21.65;;;;;;;3.17;55.68652;97088.55;;;;
2022/03/19 01:59:40;;;;;;;34.7;22;;;;;;;2.93;56.07813;97081.13;;;;
2022/03/19 02:00:42;;;;;;;34.7;22;;;;;;;2.93;56.07813;97081.13;;;;
2022/03/19 02:01:42;;;;;;;34.7;22;;;;;;;2.93;56.07813;97081.13;;;;
2022/03/19 02:02:44;;;;;;;34.7;22;;;;;;;2.93;56.07813;97081.13;;;;
2022/03/19 02:03:46;;;;;;;34.7;22;;;;;;;2.93;56.07813;97081.13;;;;
2022/03/19 02:04:47;;;;;;;34.7;22;;;;;;;2.93;56.07813;97081.13;;;;
2022/03/19 02:05:48;;;;;;;34.7;22;;;;;;;2.93;56.07813;97081.13;;;;
2022/03/19 02:06:48;;;;;;;34.7;22;;;;;;;2.93;56.07813;97081.13;;;;
2022/03/19 02:07:50;;;;;;;34.7;22;;;;;;;2.93;56.07813;97081.13;;;;
2022/03/19 02:08:51;;;;;;;34.7;22;;;;;;;2.93;56.07813;97081.13;;;;
2022/03/19 02:09:52;;;;;;;34.7;22;;;;;;;2.93;56.07813;97081.13;;;;
2022/03/19 02:10:56;;;;;;;36.55;22.25;;;;;;;2.74;56.34863;97082.5;;;;
2022/03/19 02:11:57;;;;;;;36.55;22.25;;;;;;;2.74;56.34863;97082.5;;;;
2022/03/19 02:12:59;;;;;;;36.55;22.25;;;;;;;2.74;56.34863;97082.5;;;;
2022/03/19 02:13:59;;;;;;;36.55;22.25;;;;;;;2.74;56.34863;97082.5;;;;
2022/03/19 02:15:00;;;;;;;36.55;22.25;;;;;;;2.74;56.34863;97082.5;;;;
2022/03/19 02:16:00;;;;;;;36.55;22.25;;;;;;;2.74;56.34863;97082.5;;;;
2022/03/19 02:17:01;;;;;;;36.55;22.25;;;;;;;2.74;56.34863;97082.5;;;;
2022/03/19 02:18:03;;;;;;;36.55;22.25;;;;;;;2.74;56.34863;97082.5;;;;
2022/03/19 02:19:04;;;;;;;36.55;22.25;;;;;;;2.74;56.34863;97082.5;;;;
2022/03/19 02:20:04;;;;;;;36.55;22.25;;;;;;;2.74;56.34863;97082.5;;;;
2022/03/19 02:21:07;;;;;;;40.9;24.95;;;;;;;2.61;56.48047;97087.7;;;;
2022/03/19 02:22:07;;;;;;;40.9;24.95;;;;;;;2.61;56.48047;97087.7;;;;
2022/03/19 02:28:17;;;;;;;40.9;24.95;;;;;;;2.61;56.48047;97087.7;;;;
2022/03/19 02:29:19;;;;;;;40.9;24.95;;;;;;;2.61;56.48047;97087.7;;;;
2022/03/19 02:30:20;;;;;;;40.9;24.95;;;;;;;2.61;56.48047;97087.7;;;;
2022/03/19 02:31:20;;;;;;;40.9;24.95;;;;;;;2.61;56.48047;97087.7;;;;
2022/03/19 02:32:21;;;;;;;42.6;25;;;;;;;2.51;56.63477;97075.33;;;;
2022/03/19 02:33:21;;;;;;;42.6;25;;;;;;;2.51;56.63477;97075.33;;;;
2022/03/19 02:34:22;;;;;;;42.6;25;;;;;;;2.51;56.63477;97075.33;;;;
2022/03/19 02:35:23;;;;;;;42.6;25;;;;;;;2.51;56.63477;97075.33;;;;
2022/03/19 02:36:23;;;;;;;42.6;25;;;;;;;2.51;56.63477;97075.33;;;;
2022/03/19 02:37:24;;;;;;;42.6;25;;;;;;;2.51;56.63477;97075.33;;;;
2022/03/19 02:38:24;;;;;;;42.6;25;;;;;;;2.51;56.63477;97075.33;;;;
2022/03/19 02:39:28;;;;;;;42.6;25;;;;;;;2.51;56.63477;97075.33;;;;
2022/03/19 02:40:30;;;;;;;42.6;25;;;;;;;2.51;56.63477;97075.33;;;;
2022/03/19 02:41:30;;;;;;;42.6;25;;;;;;;2.51;56.63477;97075.33;;;;
2022/03/19 02:42:31;;;;;;;45.35;25.8;;;;;;;2.29;56.55371;97074.71;;;;
2022/03/19 02:43:31;;;;;;;45.35;25.8;;;;;;;2.29;56.55371;97074.71;;;;
2022/03/19 02:44:32;;;;;;;45.35;25.8;;;;;;;2.29;56.55371;97074.71;;;;
2022/03/19 02:45:34;;;;;;;45.35;25.8;;;;;;;2.29;56.55371;97074.71;;;;
2022/03/19 02:46:34;;;;;;;45.35;25.8;;;;;;;2.29;56.55371;97074.71;;;;
2022/03/19 02:47:56;;;;;;;45.35;25.8;;;;;;;2.29;56.55371;97074.71;;;;
2022/03/19 02:48:57;;;;;;;45.35;25.8;;;;;;;2.29;56.55371;97074.71;;;;
2022/03/19 02:49:58;;;;;;;45.35;25.8;;;;;;;2.29;56.55371;97074.71;;;;
2022/03/19 02:50:58;;;;;;;45.35;25.8;;;;;;;2.29;56.55371;97074.71;;;;
2022/03/19 02:51:59;;;;;;;45.35;25.8;;;;;;;2.29;56.55371;97074.71;;;;
2022/03/19 02:52:59;;;;;;;43.45;25.45;;;;;;;1.93;56.78027;97084.3;;;;
2022/03/19 02:54:03;;;;;;;43.45;25.45;;;;;;;1.93;56.78027;97084.3;;;;
2022/03/19 02:55:06;;;;;;;43.45;25.45;;;;;;;1.93;56.78027;97084.3;;;;
2022/03/19 02:56:07;;;;;;;43.45;25.45;;;;;;;1.93;56.78027;97084.3;;;;
2022/03/19 02:57:07;;;;;;;43.45;25.45;;;;;;;1.93;56.78027;97084.3;;;;
2022/03/19 02:58:08;;;;;;;43.45;25.45;;;;;;;1.93;56.78027;97084.3;;;;
2022/03/19 02:59:09;;;;;;;43.45;25.45;;;;;;;1.93;56.78027;97084.3;;;;
2022/03/19 03:00:12;;;;;;;43.45;25.45;;;;;;;1.93;56.78027;97084.3;;;;
2022/03/19 03:01:13;;;;;;;43.45;25.45;;;;;;;1.93;56.78027;97084.3;;;;
2022/03/19 03:02:16;;;;;;;43.45;25.45;;;;;;;1.93;56.78027;97084.3;;;;
2022/03/19 03:03:17;;;;;;;43.45;25.45;;;;;;;1.93;56.78027;97084.3;;;;
2022/03/19 03:04:18;;;;;;;47.5;28.1;;;;;;;1.79;57.23535;97058.94;;;;
2022/03/19 03:05:18;;;;;;;47.5;28.1;;;;;;;1.79;57.23535;97058.94;;;;
2022/03/19 03:06:20;;;;;;;47.5;28.1;;;;;;;1.79;57.23535;97058.94;;;;
2022/03/19 03:07:21;;;;;;;47.5;28.1;;;;;;;1.79;57.23535;97058.94;;;;
2022/03/19 03:08:23;;;;;;;47.5;28.1;;;;;;;1.79;57.23535;97058.94;;;;
2022/03/19 03:09:23;;;;;;;47.5;28.1;;;;;;;1.79;57.23535;97058.94;;;;
2022/03/19 03:10:26;;;;;;;47.5;28.1;;;;;;;1.79;57.23535;97058.94;;;;
2022/03/19 03:11:28;;;;;;;47.5;28.1;;;;;;;1.79;57.23535;97058.94;;;;
2022/03/19 03:12:28;;;;;;;47.5;28.1;;;;;;;1.79;57.23535;97058.94;;;;
2022/03/19 03:13:29;;;;;;;47.5;28.1;;;;;;;1.79;57.23535;97058.94;;;;
2022/03/19 03:14:29;;;;;;;47.5;28.1;;;;;;;1.79;57.23535;97058.94;;;;
2022/03/19 03:15:30;;;;;;;47.5;28.1;;;;;;;1.79;57.23535;97058.94;;;;
2022/03/19 03:16:30;;;;;;;47.5;28.1;;;;;;;1.79;57.23535;97058.94;;;;
2022/03/19 03:17:33;;;;;;;47.5;28.1;;;;;;;1.79;57.23535;97058.94;;;;
2022/03/19 03:18:34;;;;;;;47.5;28.1;;;;;;;1.79;57.23535;97058.94;;;;
2022/03/19 03:19:34;;;;;;;47.5;28.1;;;;;;;1.79;57.23535;97058.94;;;;
2022/03/19 03:20:35;;;;;;;47.5;28.1;;;;;;;1.79;57.23535;97058.94;;;;
2022/03/19 03:21:36;;;;;;;47.5;28.1;;;;;;;1.79;57.23535;97058.94;;;;
2022/03/19 03:22:37;;;;;;;47.5;28.1;;;;;;;1.79;57.23535;97058.94;;;;
2022/03/19 03:23:38;;;;;;;47.5;28.1;;;;;;;1.79;57.23535;97058.94;;;;
2022/03/19 03:24:39;;;;;;;47.5;28.1;;;;;;;1.79;57.23535;97058.94;;;;
2022/03/19 03:25:39;;;;;;;47.5;28.1;;;;;;;1.79;57.23535;97058.94;;;;
2022/03/19 03:26:40;;;;;;;47.5;28.1;;;;;;;1.79;57.23535;97058.94;;;;
2022/03/19 03:27:41;;;;;;;47.5;28.1;;;;;;;1.79;57.23535;97058.94;;;;
2022/03/19 03:28:42;;;;;;;47.5;28.1;;;;;;;1.79;57.23535;97058.94;;;;
2022/03/19 03:29:42;;;;;;;47.5;28.1;;;;;;;1.79;57.23535;97058.94;;;;
2022/03/19 03:30:43;;;;;;;47.5;28.1;;;;;;;1.79;57.23535;97058.94;;;;
2022/03/19 03:31:43;;;;;;;47.5;28.1;;;;;;;1.79;57.23535;97058.94;;;;
2022/03/19 03:32:44;;;;;;;47.5;28.1;;;;;;;1.79;57.23535;97058.94;;;;
2022/03/19 03:33:44;;;;;;;47.5;28.1;;;;;;;1.79;57.23535;97058.94;;;;
2022/03/19 03:34:45;;;;;;;47.5;28.1;;;;;;;1.79;57.23535;97058.94;;;;
2022/03/19 03:35:46;;;;;;;56.2;30.15;;;;;;;1.3;57.27441;97042.58;;;;
2022/03/19 03:36:46;;;;;;;56.2;30.15;;;;;;;1.3;57.27441;97042.58;;;;
2022/03/19 03:37:47;;;;;;;56.2;30.15;;;;;;;1.3;57.27441;97042.58;;;;
2022/03/19 03:38:47;;;;;;;56.2;30.15;;;;;;;1.3;57.27441;97042.58;;;;
2022/03/19 03:39:48;;;;;;;56.2;30.15;;;;;;;1.3;57.27441;97042.58;;;;
2022/03/19 03:40:49;;;;;;;56.2;30.15;;;;;;;1.3;57.27441;97042.58;;;;
2022/03/19 03:41:49;;;;;;;56.2;30.15;;;;;;;1.3;57.27441;97042.58;;;;
2022/03/19 03:42:50;;;;;;;56.2;30.15;;;;;;;1.3;57.27441;97042.58;;;;
2022/03/19 03:43:50;;;;;;;56.2;30.15;;;;;;;1.3;57.27441;97042.58;;;;
2022/03/19 03:44:54;;;;;;;56.2;30.15;;;;;;;1.3;57.27441;97042.58;;;;
2022/03/19 03:45:54;;;;;;;56.2;30.15;;;;;;;1.3;57.27441;97042.58;;;;
2022/03/19 03:46:55;;;;;;;49.1;28.55;;;;;;;0.98;57.45215;97045.92;;;;
2022/03/19 03:47:56;;;;;;;49.1;28.55;;;;;;;0.98;57.45215;97045.92;;;;
2022/03/19 03:48:56;;;;;;;49.1;28.55;;;;;;;0.98;57.45215;97045.92;;;;
2022/03/19 03:49:57;;;;;;;49.1;28.55;;;;;;;0.98;57.45215;97045.92;;;;
2022/03/19 03:50:57;;;;;;;49.1;28.55;;;;;;;0.98;57.45215;97045.92;;;;
2022/03/19 03:51:58;;;;;;;49.1;28.55;;;;;;;0.98;57.45215;97045.92;;;;
2022/03/19 03:52:58;;;;;;;49.1;28.55;;;;;;;0.98;57.45215;97045.92;;;;
2022/03/19 03:53:59;;;;;;;49.1;28.55;;;;;;;0.98;57.45215;97045.92;;;;
2022/03/19 03:54:59;;;;;;;49.1;28.55;;;;;;;0.98;57.45215;97045.92;;;;
2022/03/19 03:56:00;;;;;;;49.1;28.55;;;;;;;0.98;57.45215;97045.92;;;;
2022/03/19 03:57:01;;;;;;;49.1;28.55;;;;;;;0.98;57.45215;97045.92;;;;
2022/03/19 03:58:03;;;;;;;54.55;30.3;;;;;;;0.63;57.62598;97054.79;;;;
2022/03/19 03:59:05;;;;;;;54.55;30.3;;;;;;;0.63;57.62598;97054.79;;;;
2022/03/19 04:00:05;;;;;;;54.55;30.3;;;;;;;0.63;57.62598;97054.79;;;;
2022/03/19 04:01:07;;;;;;;54.55;30.3;;;;;;;0.63;57.62598;97054.79;;;;
2022/03/19 04:02:09;;;;;;;54.55;30.3;;;;;;;0.63;57.62598;97054.79;;;;
2022/03/19 04:03:09;;;;;;;54.55;30.3;;;;;;;0.63;57.62598;97054.79;;;;
2022/03/19 04:04:10;;;;;;;54.55;30.3;;;;;;;0.63;57.62598;97054.79;;;;
2022/03/19 04:05:10;;;;;;;54.55;30.3;;;;;;;0.63;57.62598;97054.79;;;;
2022/03/19 04:06:11;;;;;;;54.55;30.3;;;;;;;0.63;57.62598;97054.79;;;;
2022/03/19 04:07:11;;;;;;;54.55;30.3;;;;;;;0.63;57.62598;97054.79;;;;
2022/03/19 04:08:12;;;;;;;53.55;30.05;;;;;;;0.29;57.78027;97044.84;;;;
2022/03/19 04:09:12;;;;;;;53.55;30.05;;;;;;;0.29;57.78027;97044.84;;;;
2022/03/19 04:10:13;;;;;;;53.55;30.05;;;;;;;0.29;57.78027;97044.84;;;;
2022/03/19 04:11:13;;;;;;;53.55;30.05;;;;;;;0.29;57.78027;97044.84;;;;
2022/03/19 04:12:15;;;;;;;53.55;30.05;;;;;;;0.29;57.78027;97044.84;;;;
2022/03/19 04:13:15;;;;;;;53.55;30.05;;;;;;;0.29;57.78027;97044.84;;;;
2022/03/19 04:14:16;;;;;;;53.55;30.05;;;;;;;0.29;57.78027;97044.84;;;;
2022/03/19 04:15:18;;;;;;;53.55;30.05;;;;;;;0.29;57.78027;97044.84;;;;
2022/03/19 04:16:18;;;;;;;53.55;30.05;;;;;;;0.29;57.78027;97044.84;;;;
2022/03/19 04:17:19;;;;;;;53.55;30.05;;;;;;;0.29;57.78027;97044.84;;;;
2022/03/19 04:18:19;;;;;;;53.55;30.05;;;;;;;0.29;57.78027;97044.84;;;;
2022/03/19 04:19:20;;;;;;;55.09999;30.1;;;;;;;0;57.9502;97031.8;;;;
2022/03/19 04:20:22;;;;;;;55.09999;30.1;;;;;;;0;57.9502;97031.8;;;;
2022/03/19 04:21:23;;;;;;;55.09999;30.1;;;;;;;0;57.9502;97031.8;;;;
2022/03/19 04:22:23;;;;;;;55.09999;30.1;;;;;;;0;57.9502;97031.8;;;;
2022/03/19 04:23:32;;;;;;;55.09999;30.1;;;;;;;0;57.9502;97031.8;;;;
2022/03/19 04:24:33;;;;;;;55.09999;30.1;;;;;;;0;57.9502;97031.8;;;;
2022/03/19 04:25:33;;;;;;;55.09999;30.1;;;;;;;0;57.9502;97031.8;;;;
2022/03/19 04:26:34;;;;;;;55.09999;30.1;;;;;;;0;57.9502;97031.8;;;;
2022/03/19 04:27:35;;;;;;;55.09999;30.1;;;;;;;0;57.9502;97031.8;;;;
2022/03/19 04:28:35;;;;;;;55.09999;30.1;;;;;;;0;57.9502;97031.8;;;;
2022/03/19 04:29:36;;;;;;;55.09999;30.1;;;;;;;0;57.9502;97031.8;;;;
2022/03/19 04:30:36;;;;;;;55.09999;30.1;;;;;;;0;57.9502;97031.8;;;;
2022/03/19 04:31:39;;;;;;;55.09999;30.1;;;;;;;0;57.9502;97031.8;;;;
2022/03/19 04:32:40;;;;;;;55.09999;30.1;;;;;;;0;57.9502;97031.8;;;;
2022/03/19 04:33:41;;;;;;;55.09999;30.1;;;;;;;0;57.9502;97031.8;;;;
2022/03/19 04:34:41;;;;;;;55.09999;30.1;;;;;;;0;57.9502;97031.8;;;;
2022/03/19 04:36:47;;;;;;;55.09999;30.1;;;;;;;0;57.9502;97031.8;;;;
2022/03/19 04:37:48;;;;;;;55.09999;30.1;;;;;;;0;57.9502;97031.8;;;;
2022/03/19 04:38:48;;;;;;;55.09999;30.1;;;;;;;0;57.9502;97031.8;;;;
2022/03/19 04:39:48;;;;;;;59.45;30.9;;;;;;;-0.22;58.06641;97020.03;;;;
2022/03/19 04:40:49;;;;;;;59.45;30.9;;;;;;;-0.22;58.06641;97020.03;;;;
2022/03/19 04:41:52;;;;;;;59.45;30.9;;;;;;;-0.22;58.06641;97020.03;;;;
2022/03/19 04:42:52;;;;;;;59.45;30.9;;;;;;;-0.22;58.06641;97020.03;;;;
2022/03/19 04:43:53;;;;;;;59.45;30.9;;;;;;;-0.22;58.06641;97020.03;;;;
2022/03/19 04:44:55;;;;;;;59.45;30.9;;;;;;;-0.22;58.06641;97020.03;;;;
2022/03/19 04:45:55;;;;;;;59.45;30.9;;;;;;;-0.22;58.06641;97020.03;;;;
2022/03/19 04:46:56;;;;;;;59.45;30.9;;;;;;;-0.22;58.06641;97020.03;;;;
2022/03/19 04:47:56;;;;;;;59.45;30.9;;;;;;;-0.22;58.06641;97020.03;;;;
2022/03/19 04:48:57;;;;;;;59.45;30.9;;;;;;;-0.22;58.06641;97020.03;;;;
2022/03/19 04:49:58;;;;;;;59.45;30.9;;;;;;;-0.22;58.06641;97020.03;;;;
2022/03/19 04:51:00;;;;;;;68.34999;33.7;;;;;;;-0.3;58.13965;97026.4;;;;
2022/03/19 04:52:01;;;;;;;68.34999;33.7;;;;;;;-0.3;58.13965;97026.4;;;;
2022/03/19 04:53:01;;;;;;;68.34999;33.7;;;;;;;-0.3;58.13965;97026.4;;;;
2022/03/19 04:54:04;;;;;;;68.34999;33.7;;;;;;;-0.3;58.13965;97026.4;;;;
2022/03/19 04:55:05;;;;;;;68.34999;33.7;;;;;;;-0.3;58.13965;97026.4;;;;
2022/03/19 04:56:07;;;;;;;68.34999;33.7;;;;;;;-0.3;58.13965;97026.4;;;;
2022/03/19 04:57:08;;;;;;;68.34999;33.7;;;;;;;-0.3;58.13965;97026.4;;;;
2022/03/19 04:58:09;;;;;;;68.34999;33.7;;;;;;;-0.3;58.13965;97026.4;;;;
2022/03/19 04:59:11;;;;;;;68.34999;33.7;;;;;;;-0.3;58.13965;97026.4;;;;
2022/03/19 05:00:13;;;;;;;68.34999;33.7;;;;;;;-0.3;58.13965;97026.4;;;;
2022/03/19 05:01:14;;;;;;;63.5;33.4;;;;;;;-0.46;58.20215;97016.69;;;;
2022/03/19 05:02:14;;;;;;;63.5;33.4;;;;;;;-0.46;58.20215;97016.69;;;;
2022/03/19 05:03:15;;;;;;;63.5;33.4;;;;;;;-0.46;58.20215;97016.69;;;;
2022/03/19 05:04:15;;;;;;;63.5;33.4;;;;;;;-0.46;58.20215;97016.69;;;;
2022/03/19 05:05:16;;;;;;;63.5;33.4;;;;;;;-0.46;58.20215;97016.69;;;;
2022/03/19 05:06:17;;;;;;;63.5;33.4;;;;;;;-0.46;58.20215;97016.69;;;;
2022/03/19 05:07:19;;;;;;;63.5;33.4;;;;;;;-0.46;58.20215;97016.69;;;;
2022/03/19 05:08:19;;;;;;;63.5;33.4;;;;;;;-0.46;58.20215;97016.69;;;;
2022/03/19 05:14:31;;;;;;;67.95;34.2;;;;;;;-0.61;58.34863;97019.26;;;;
2022/03/19 05:15:32;;;;;;;67.95;34.2;;;;;;;-0.61;58.34863;97019.26;;;;
2022/03/19 05:16:32;;;;;;;67.95;34.2;;;;;;;-0.61;58.34863;97019.26;;;;
2022/03/19 05:17:33;;;;;;;67.95;34.2;;;;;;;-0.61;58.34863;97019.26;;;;
2022/03/19 05:18:34;;;;;;;67.95;34.2;;;;;;;-0.61;58.34863;97019.26;;;;
2022/03/19 05:19:34;;;;;;;67.95;34.2;;;;;;;-0.61;58.34863;97019.26;;;;
2022/03/19 05:20:35;;;;;;;67.95;34.2;;;;;;;-0.61;58.34863;97019.26;;;;
2022/03/19 05:21:35;;;;;;;67.95;34.2;;;;;;;-0.61;58.34863;97019.26;;;;
2022/03/19 05:22:36;;;;;;;63.55;33.65;;;;;;;-0.66;58.35156;97008.67;;;;
2022/03/19 05:23:37;;;;;;;63.55;33.65;;;;;;;-0.66;58.35156;97008.67;;;;
2022/03/19 05:24:38;;;;;;;63.55;33.65;;;;;;;-0.66;58.35156;97008.67;;;;
2022/03/19 05:25:38;;;;;;;63.55;33.65;;;;;;;-0.66;58.35156;97008.67;;;;
2022/03/19 05:26:39;;;;;;;63.55;33.65;;;;;;;-0.66;58.35156;97008.67;;;;
2022/03/19 05:27:40;;;;;;;63.55;33.65;;;;;;;-0.66;58.35156;97008.67;;;;
2022/03/19 05:28:40;;;;;;;63.55;33.65;;;;;;;-0.66;58.35156;97008.67;;;;
2022/03/19 05:29:41;;;;;;;63.55;33.65;;;;;;;-0.66;58.35156;97008.67;;;;
2022/03/19 05:30:41;;;;;;;63.55;33.65;;;;;;;-0.66;58.35156;97008.67;;;;
2022/03/19 05:31:42;;;;;;;63.55;33.65;;;;;;;-0.66;58.35156;97008.67;;;;
2022/03/19 05:32:43;;;;;;;63.55;33.65;;;;;;;-0.66;58.35156;97008.67;;;;
2022/03/19 05:34:48;;;;;;;68.15001;35.24999;;;;;;;-0.68;58.31738;97002.65;;;;
2022/03/19 05:35:49;;;;;;;68.15001;35.24999;;;;;;;-0.68;58.31738;97002.65;;;;
2022/03/19 05:36:50;;;;;;;68.15001;35.24999;;;;;;;-0.68;58.31738;97002.65;;;;
2022/03/19 05:37:50;;;;;;;68.15001;35.24999;;;;;;;-0.68;58.31738;97002.65;;;;
2022/03/19 05:38:51;;;;;;;68.15001;35.24999;;;;;;;-0.68;58.31738;97002.65;;;;
2022/03/19 05:39:54;;;;;;;68.15001;35.24999;;;;;;;-0.68;58.31738;97002.65;;;;
2022/03/19 05:40:55;;;;;;;68.15001;35.24999;;;;;;;-0.68;58.31738;97002.65;;;;
2022/03/19 05:41:55;;;;;;;68.15001;35.24999;;;;;;;-0.68;58.31738;97002.65;;;;
2022/03/19 05:42:56;;;;;;;68.15001;35.24999;;;;;;;-0.68;58.31738;97002.65;;;;
2022/03/19 05:43:56;;;;;;;69.49999;35.49999;;;;;;;-0.65;58.29102;96991.82;;;;
2022/03/19 05:44:57;;;;;;;69.49999;35.49999;;;;;;;-0.65;58.29102;96991.82;;;;
2022/03/19 05:45:58;;;;;;;69.49999;35.49999;;;;;;;-0.65;58.29102;96991.82;;;;
2022/03/19 05:46:58;;;;;;;69.49999;35.49999;;;;;;;-0.65;58.29102;96991.82;;;;
2022/03/19 05:47:59;;;;;;;69.49999;35.49999;;;;;;;-0.65;58.29102;96991.82;;;;
2022/03/19 05:49:00;;;;;;;69.49999;35.49999;;;;;;;-0.65;58.29102;96991.82;;;;
2022/03/19 05:50:00;;;;;;;69.49999;35.49999;;;;;;;-0.65;58.29102;96991.82;;;;
2022/03/19 05:51:01;;;;;;;69.49999;35.49999;;;;;;;-0.65;58.29102;96991.82;;;;
2022/03/19 05:52:02;;;;;;;69.49999;35.49999;;;;;;;-0.65;58.29102;96991.82;;;;
2022/03/19 05:53:03;;;;;;;69.49999;35.49999;;;;;;;-0.65;58.29102;96991.82;;;;
2022/03/19 05:54:03;;;;;;;69.49999;35.49999;;;;;;;-0.65;58.29102;96991.82;;;;
2022/03/19 05:55:04;;;;;;;64.7;33.40001;;;;;;;-0.55;58.25293;96987.38;;;;
2022/03/19 05:56:07;;;;;;;64.7;33.40001;;;;;;;-0.55;58.25293;96987.38;;;;
2022/03/19 05:57:07;;;;;;;64.7;33.40001;;;;;;;-0.55;58.25293;96987.38;;;;
2022/03/19 05:58:08;;;;;;;64.7;33.40001;;;;;;;-0.55;58.25293;96987.38;;;;